sensor_id;sensor_type;location;lat;lon;timestamp;pressure;altitude;pressure_sealevel;temperature;humidity
40117;BME280;25829;50.228;18.936;2022-12-07T00:00:18;98099.06;;;1.63;77.02
40117;BME280;25829;50.228;18.936;2022-12-07T00:03:19;98110.44;;;1.62;76.96
40117;BME280;25829;50.228;18.936;2022-12-07T00:06:20;98096.59;;;1.62;76.94
40117;BME280;25829;50.228;18.936;2022-12-07T00:09:21;98091.56;;;1.60;76.42
40117;BME280;25829;50.228;18.936;2022-12-07T00:12:22;98095.78;;;1.61;76.85
40117;BME280;25829;50.228;18.936;2022-12-07T00:15:23;98092.06;;;1.64;76.99
40117;BME280;25829;50.228;18.936;2022-12-07T00:18:23;98098.88;;;1.65;76.59
40117;BME280;25829;50.228;18.936;2022-12-07T00:21:27;98099.06;;;1.63;76.84
40117;BME280;25829;50.228;18.936;2022-12-07T00:24:28;98103.25;;;1.64;76.76
40117;BME280;25829;50.228;18.936;2022-12-07T00:27:28;98100.66;;;1.64;76.51
40117;BME280;25829;50.228;18.936;2022-12-07T00:30:29;98083.94;;;1.67;76.64
40117;BME280;25829;50.228;18.936;2022-12-07T00:33:30;98091.56;;;1.68;76.68
40117;BME280;25829;50.228;18.936;2022-12-07T00:36:31;98076.28;;;1.65;76.41
40117;BME280;25829;50.228;18.936;2022-12-07T00:39:31;98083.13;;;1.66;76.83
40117;BME280;25829;50.228;18.936;2022-12-07T00:42:32;98076.28;;;1.65;76.85
40117;BME280;25829;50.228;18.936;2022-12-07T00:45:33;98076.16;;;1.67;76.69
40117;BME280;25829;50.228;18.936;2022-12-07T00:48:34;98071.09;;;1.65;76.87
40117;BME280;25829;50.228;18.936;2022-12-07T00:51:34;98071.09;;;1.65;76.38
40117;BME280;25829;50.228;18.936;2022-12-07T00:54:35;98068.47;;;1.65;76.63
40117;BME280;25829;50.228;18.936;2022-12-07T00:57:36;98067.53;;;1.66;76.89
40117;BME280;25829;50.228;18.936;2022-12-07T01:00:39;98076.16;;;1.67;76.62
40117;BME280;25829;50.228;18.936;2022-12-07T01:03:40;98061.53;;;1.66;76.87
40117;BME280;25829;50.228;18.936;2022-12-07T01:06:41;98066.72;;;1.66;76.93
40117;BME280;25829;50.228;18.936;2022-12-07T01:09:41;98060.69;;;1.65;77.16
40117;BME280;25829;50.228;18.936;2022-12-07T01:12:42;98054.34;;;1.68;77.15
40117;BME280;25829;50.228;18.936;2022-12-07T01:15:44;98057.63;;;1.70;77.18
40117;BME280;25829;50.228;18.936;2022-12-07T01:18:50;98054.53;;;1.74;77.48
40117;BME280;25829;50.228;18.936;2022-12-07T01:21:51;98054.34;;;1.76;77.36
40117;BME280;25829;50.228;18.936;2022-12-07T01:34:56;98051.75;;;1.76;77.36
40117;BME280;25829;50.228;18.936;2022-12-07T01:37:57;98048.34;;;1.75;77.29
40117;BME280;25829;50.228;18.936;2022-12-07T01:40:58;98044.78;;;1.76;77.57
40117;BME280;25829;50.228;18.936;2022-12-07T01:47:19;98040.41;;;1.77;77.60
40117;BME280;25829;50.228;18.936;2022-12-07T01:50:20;98041.53;;;1.74;77.35
40117;BME280;25829;50.228;18.936;2022-12-07T01:53:25;98038.94;;;1.74;77.39
40117;BME280;25829;50.228;18.936;2022-12-07T01:56:27;98038.75;;;1.76;77.64
40117;BME280;25829;50.228;18.936;2022-12-07T01:59:29;98039.59;;;1.76;77.57
40117;BME280;25829;50.228;18.936;2022-12-07T02:02:33;98039.41;;;1.78;77.60
40117;BME280;25829;50.228;18.936;2022-12-07T02:05:37;98043.50;;;1.81;77.58
40117;BME280;25829;50.228;18.936;2022-12-07T02:08:38;98040.88;;;1.81;77.95
40117;BME280;25829;50.228;18.936;2022-12-07T02:11:40;98037.47;;;1.80;77.74
40117;BME280;25829;50.228;18.936;2022-12-07T02:14:41;98026.09;;;1.81;77.78
40117;BME280;25829;50.228;18.936;2022-12-07T02:17:52;98040.25;;;1.87;77.90
40117;BME280;25829;50.228;18.936;2022-12-07T02:21:27;98034.38;;;1.85;77.63
40117;BME280;25829;50.228;18.936;2022-12-07T02:31:04;98044.47;;;1.88;77.20
40117;BME280;25829;50.228;18.936;2022-12-07T02:34:11;98041.06;;;1.87;77.32
40117;BME280;25829;50.228;18.936;2022-12-07T02:43:50;98042.00;;;1.86;77.49
40117;BME280;25829;50.228;18.936;2022-12-07T02:46:57;98038.59;;;1.86;77.39
40117;BME280;25829;50.228;18.936;2022-12-07T02:49:59;98032.59;;;1.85;77.66
40117;BME280;25829;50.228;18.936;2022-12-07T02:53:02;98034.69;;;1.90;77.40
40117;BME280;25829;50.228;18.936;2022-12-07T03:05:59;98027.72;;;1.90;77.34
40117;BME280;25829;50.228;18.936;2022-12-07T03:09:20;98027.06;;;1.88;77.36
40117;BME280;25829;50.228;18.936;2022-12-07T03:12:29;98032.59;;;1.85;77.44
40117;BME280;25829;50.228;18.936;2022-12-07T03:18:37;98024.78;;;1.85;77.66
40117;BME280;25829;50.228;18.936;2022-12-07T03:21:46;98026.41;;;1.86;77.48
40117;BME280;25829;50.228;18.936;2022-12-07T03:24:53;98017.16;;;1.84;77.60
40117;BME280;25829;50.228;18.936;2022-12-07T03:28:03;98011.78;;;1.85;77.52
40117;BME280;25829;50.228;18.936;2022-12-07T03:31:17;98017.97;;;1.84;77.57
40117;BME280;25829;50.228;18.936;2022-12-07T03:34:35;98014.72;;;1.82;77.75
40117;BME280;25829;50.228;18.936;2022-12-07T03:37:55;98021.06;;;1.79;77.78
40117;BME280;25829;50.228;18.936;2022-12-07T03:41:06;98018.78;;;1.76;77.70
40117;BME280;25829;50.228;18.936;2022-12-07T03:44:10;98015.53;;;1.74;77.44
40117;BME280;25829;50.228;18.936;2022-12-07T03:50:54;98004.81;;;1.77;77.45
40117;BME280;25829;50.228;18.936;2022-12-07T03:53:59;98007.53;;;1.76;77.30
40117;BME280;25829;50.228;18.936;2022-12-07T03:57:04;98021.22;;;1.78;77.46
40117;BME280;25829;50.228;18.936;2022-12-07T04:00:07;98020.53;;;1.76;77.75
40117;BME280;25829;50.228;18.936;2022-12-07T04:03:12;98013.09;;;1.73;77.84
40117;BME280;25829;50.228;18.936;2022-12-07T04:06:13;98010.00;;;1.69;77.64
40117;BME280;25829;50.228;18.936;2022-12-07T04:09:14;98009.34;;;1.67;77.26
40117;BME280;25829;50.228;18.936;2022-12-07T04:12:15;98013.88;;;1.65;77.51
40117;BME280;25829;50.228;18.936;2022-12-07T04:15:16;98015.53;;;1.66;77.40
40117;BME280;25829;50.228;18.936;2022-12-07T04:18:17;98009.53;;;1.66;77.31
40117;BME280;25829;50.228;18.936;2022-12-07T04:21:17;98005.44;;;1.63;77.28
40117;BME280;25829;50.228;18.936;2022-12-07T04:24:18;98006.75;;;1.59;77.51
40117;BME280;25829;50.228;18.936;2022-12-07T04:27:19;98008.38;;;1.60;77.22
40117;BME280;25829;50.228;18.936;2022-12-07T04:30:20;98015.19;;;1.61;77.58
40117;BME280;25829;50.228;18.936;2022-12-07T04:33:21;98002.84;;;1.63;77.29
40117;BME280;25829;50.228;18.936;2022-12-07T04:36:22;98014.06;;;1.64;77.02
40117;BME280;25829;50.228;18.936;2022-12-07T04:39:28;98014.88;;;1.64;77.12
40117;BME280;25829;50.228;18.936;2022-12-07T04:42:29;98016.84;;;1.62;77.30
40117;BME280;25829;50.228;18.936;2022-12-07T04:45:30;98013.25;;;1.63;77.05
40117;BME280;25829;50.228;18.936;2022-12-07T04:48:31;98007.38;;;1.61;77.37
40117;BME280;25829;50.228;18.936;2022-12-07T04:51:31;98017.63;;;1.63;77.39
40117;BME280;25829;50.228;18.936;2022-12-07T04:54:32;98008.38;;;1.60;77.30
40117;BME280;25829;50.228;18.936;2022-12-07T04:57:33;98017.16;;;1.59;77.50
40117;BME280;25829;50.228;18.936;2022-12-07T05:00:34;98013.72;;;1.59;77.36
40117;BME280;25829;50.228;18.936;2022-12-07T05:03:36;98014.56;;;1.59;77.62
40117;BME280;25829;50.228;18.936;2022-12-07T05:06:37;98013.06;;;1.57;77.40
40117;BME280;25829;50.228;18.936;2022-12-07T05:09:37;98016.81;;;1.54;77.26
40117;BME280;25829;50.228;18.936;2022-12-07T05:12:38;98016.00;;;1.53;77.62
40117;BME280;25829;50.228;18.936;2022-12-07T05:15:39;98014.38;;;1.52;77.20
40117;BME280;25829;50.228;18.936;2022-12-07T05:18:40;98018.09;;;1.50;77.43
40117;BME280;25829;50.228;18.936;2022-12-07T05:21:40;98013.88;;;1.49;77.77
40117;BME280;25829;50.228;18.936;2022-12-07T05:24:41;98013.06;;;1.48;77.19
40117;BME280;25829;50.228;18.936;2022-12-07T05:27:42;98021.34;;;1.44;77.38
40117;BME280;25829;50.228;18.936;2022-12-07T05:30:42;98018.41;;;1.39;77.32
40117;BME280;25829;50.228;18.936;2022-12-07T05:33:43;98021.81;;;1.39;77.42
40117;BME280;25829;50.228;18.936;2022-12-07T05:36:44;98020.03;;;1.40;77.29
40117;BME280;25829;50.228;18.936;2022-12-07T05:39:44;98020.03;;;1.40;77.65
40117;BME280;25829;50.228;18.936;2022-12-07T05:42:45;98015.00;;;1.38;77.50
40117;BME280;25829;50.228;18.936;2022-12-07T05:45:46;98019.22;;;1.39;77.48
40117;BME280;25829;50.228;18.936;2022-12-07T05:48:47;98013.03;;;1.40;77.57
40117;BME280;25829;50.228;18.936;2022-12-07T05:51:47;98019.72;;;1.43;77.55
40117;BME280;25829;50.228;18.936;2022-12-07T05:54:48;98017.75;;;1.45;77.10
40117;BME280;25829;50.228;18.936;2022-12-07T05:57:49;98021.19;;;1.45;77.28
40117;BME280;25829;50.228;18.936;2022-12-07T06:01:08;98015.16;;;1.45;77.14
40117;BME280;25829;50.228;18.936;2022-12-07T06:04:09;98010.78;;;1.45;77.12
40117;BME280;25829;50.228;18.936;2022-12-07T06:07:11;98014.19;;;1.46;77.17
40117;BME280;25829;50.228;18.936;2022-12-07T06:10:12;98026.22;;;1.47;76.84
40117;BME280;25829;50.228;18.936;2022-12-07T06:13:12;98024.91;;;1.43;76.64
40117;BME280;25829;50.228;18.936;2022-12-07T06:16:13;98023.44;;;1.40;76.65
40117;BME280;25829;50.228;18.936;2022-12-07T06:19:14;98028.81;;;1.39;76.98
40117;BME280;25829;50.228;18.936;2022-12-07T06:22:15;98034.00;;;1.39;77.42
40117;BME280;25829;50.228;18.936;2022-12-07T06:25:16;98038.22;;;1.40;77.58
40117;BME280;25829;50.228;18.936;2022-12-07T06:28:17;98036.59;;;1.39;77.30
40117;BME280;25829;50.228;18.936;2022-12-07T06:31:17;98040.00;;;1.39;77.15
40117;BME280;25829;50.228;18.936;2022-12-07T06:34:20;98040.34;;;1.36;77.38
40117;BME280;25829;50.228;18.936;2022-12-07T06:37:23;98049.91;;;1.36;77.01
40117;BME280;25829;50.228;18.936;2022-12-07T06:40:23;98045.53;;;1.28;77.24
40117;BME280;25829;50.228;18.936;2022-12-07T06:43:24;98049.38;;;1.24;77.60
40117;BME280;25829;50.228;18.936;2022-12-07T06:46:25;98050.22;;;1.24;77.42
40117;BME280;25829;50.228;18.936;2022-12-07T06:49:25;98055.56;;;1.23;77.72
40117;BME280;25829;50.228;18.936;2022-12-07T06:52:26;98057.53;;;1.21;77.47
40117;BME280;25829;50.228;18.936;2022-12-07T06:55:27;98045.66;;;1.18;77.75
40117;BME280;25829;50.228;18.936;2022-12-07T06:58:27;98050.03;;;1.18;77.78
40117;BME280;25829;50.228;18.936;2022-12-07T07:01:28;98056.19;;;1.17;77.87
40117;BME280;25829;50.228;18.936;2022-12-07T07:04:29;98052.78;;;1.16;77.53
40117;BME280;25829;50.228;18.936;2022-12-07T07:07:30;98057.97;;;1.16;77.86
40117;BME280;25829;50.228;18.936;2022-12-07T07:10:31;98055.88;;;1.20;77.68
40117;BME280;25829;50.228;18.936;2022-12-07T07:13:32;98059.44;;;1.19;77.66
40117;BME280;25829;50.228;18.936;2022-12-07T07:16:32;98064.66;;;1.19;77.62
40117;BME280;25829;50.228;18.936;2022-12-07T07:19:33;98060.94;;;1.21;78.18
40117;BME280;25829;50.228;18.936;2022-12-07T07:22:34;98055.72;;;1.21;78.00
40117;BME280;25829;50.228;18.936;2022-12-07T07:25:35;98070.34;;;1.22;78.00
40117;BME280;25829;50.228;18.936;2022-12-07T07:28:36;98060.44;;;1.18;78.01
40117;BME280;25829;50.228;18.936;2022-12-07T07:31:37;98062.84;;;1.19;78.09
40117;BME280;25829;50.228;18.936;2022-12-07T07:34:37;98064.34;;;1.22;78.45
40117;BME280;25829;50.228;18.936;2022-12-07T07:37:38;98062.38;;;1.24;78.25
40117;BME280;25829;50.228;18.936;2022-12-07T07:40:39;98054.25;;;1.27;78.46
40117;BME280;25829;50.228;18.936;2022-12-07T07:43:40;98063.53;;;1.29;78.51
40117;BME280;25829;50.228;18.936;2022-12-07T07:46:41;98060.13;;;1.29;77.99
40117;BME280;25829;50.228;18.936;2022-12-07T07:49:41;98066.81;;;1.31;78.17
40117;BME280;25829;50.228;18.936;2022-12-07T07:52:42;98060.63;;;1.33;78.03
40117;BME280;25829;50.228;18.936;2022-12-07T07:55:53;98052.84;;;1.33;78.52
40117;BME280;25829;50.228;18.936;2022-12-07T07:58:55;98057.72;;;1.36;78.71
40117;BME280;25829;50.228;18.936;2022-12-07T08:01:56;98055.75;;;1.38;78.61
40117;BME280;25829;50.228;18.936;2022-12-07T08:04:56;98057.91;;;1.42;78.48
40117;BME280;25829;50.228;18.936;2022-12-07T08:07:57;98059.69;;;1.50;78.44
40117;BME280;25829;50.228;18.936;2022-12-07T08:10:58;98060.84;;;1.55;78.83
40117;BME280;25829;50.228;18.936;2022-12-07T08:14:01;98060.06;;;1.63;78.55
40117;BME280;25829;50.228;18.936;2022-12-07T08:17:02;98072.72;;;1.66;78.24
40117;BME280;25829;50.228;18.936;2022-12-07T08:20:04;98077.63;;;1.69;78.58
40117;BME280;25829;50.228;18.936;2022-12-07T08:23:06;98073.22;;;1.70;78.58
40117;BME280;25829;50.228;18.936;2022-12-07T08:26:10;98073.22;;;1.78;78.38
40117;BME280;25829;50.228;18.936;2022-12-07T08:29:11;98075.19;;;1.84;78.21
40117;BME280;25829;50.228;18.936;2022-12-07T08:32:11;98082.50;;;1.89;78.58
40117;BME280;25829;50.228;18.936;2022-12-07T08:35:12;98076.97;;;1.92;78.31
40117;BME280;25829;50.228;18.936;2022-12-07T08:38:13;98086.25;;;1.94;77.80
40117;BME280;25829;50.228;18.936;2022-12-07T08:41:15;98093.06;;;1.95;78.37
40117;BME280;25829;50.228;18.936;2022-12-07T08:44:15;98091.94;;;1.98;78.06
40117;BME280;25829;50.228;18.936;2022-12-07T08:47:16;98099.44;;;2.01;78.48
40117;BME280;25829;50.228;18.936;2022-12-07T08:50:17;98107.88;;;2.03;78.32
40117;BME280;25829;50.228;18.936;2022-12-07T08:53:18;98096.84;;;2.01;77.96
40117;BME280;25829;50.228;18.936;2022-12-07T08:56:19;98103.47;;;2.03;78.27
40117;BME280;25829;50.228;18.936;2022-12-07T08:59:20;98094.72;;;2.05;78.21
40117;BME280;25829;50.228;18.936;2022-12-07T09:02:21;98093.41;;;2.09;78.38
40117;BME280;25829;50.228;18.936;2022-12-07T09:05:25;98093.72;;;2.14;78.31
40117;BME280;25829;50.228;18.936;2022-12-07T09:32:48;98063.47;;;2.13;78.28
40117;BME280;25829;50.228;18.936;2022-12-07T09:35:52;98059.25;;;2.12;78.37
40117;BME280;25829;50.228;18.936;2022-12-07T09:38:56;98059.09;;;2.13;78.63
40117;BME280;25829;50.228;18.936;2022-12-07T09:41:57;98046.25;;;2.12;78.53
40117;BME280;25829;50.228;18.936;2022-12-07T09:44:59;98048.34;;;2.16;78.51
40117;BME280;25829;50.228;18.936;2022-12-07T09:48:04;98044.94;;;2.24;78.74
40117;BME280;25829;50.228;18.936;2022-12-07T09:51:24;98042.97;;;2.26;78.25
40117;BME280;25829;50.228;18.936;2022-12-07T09:54:36;98037.78;;;2.26;78.91
40117;BME280;25829;50.228;18.936;2022-12-07T09:57:41;98036.31;;;2.23;78.56
40117;BME280;25829;50.228;18.936;2022-12-07T10:00:42;98032.41;;;2.27;78.87
40117;BME280;25829;50.228;18.936;2022-12-07T10:04:22;98020.00;;;2.38;79.01
40117;BME280;25829;50.228;18.936;2022-12-07T10:07:24;98024.25;;;2.39;78.43
40117;BME280;25829;50.228;18.936;2022-12-07T10:10:29;98005.88;;;2.40;78.59
40117;BME280;25829;50.228;18.936;2022-12-07T10:13:36;98007.00;;;2.46;79.02
40117;BME280;25829;50.228;18.936;2022-12-07T10:16:39;97998.50;;;2.52;79.18
40117;BME280;25829;50.228;18.936;2022-12-07T10:19:41;98005.66;;;2.58;78.82
40117;BME280;25829;50.228;18.936;2022-12-07T10:23:04;97999.97;;;2.63;78.90
40117;BME280;25829;50.228;18.936;2022-12-07T10:29:37;97987.91;;;2.62;78.73
40117;BME280;25829;50.228;18.936;2022-12-07T10:32:38;97980.25;;;2.60;78.33
40117;BME280;25829;50.228;18.936;2022-12-07T10:35:43;97983.19;;;2.57;78.52
40117;BME280;25829;50.228;18.936;2022-12-07T10:38:46;97987.41;;;2.66;78.69
40117;BME280;25829;50.228;18.936;2022-12-07T10:41:55;97984.09;;;2.72;78.03
40117;BME280;25829;50.228;18.936;2022-12-07T10:45:29;97982.16;;;2.74;78.12
40117;BME280;25829;50.228;18.936;2022-12-07T10:48:59;97988.50;;;2.72;77.99
40117;BME280;25829;50.228;18.936;2022-12-07T11:09:55;97970.69;;;2.92;77.99
40117;BME280;25829;50.228;18.936;2022-12-07T11:13:25;97973.94;;;2.94;77.90
40117;BME280;25829;50.228;18.936;2022-12-07T11:30:38;97953.84;;;2.71;77.31
40117;BME280;25829;50.228;18.936;2022-12-07T11:34:12;97947.97;;;2.69;77.22
40117;BME280;25829;50.228;18.936;2022-12-07T11:37:19;97947.97;;;2.69;77.61
40117;BME280;25829;50.228;18.936;2022-12-07T11:40:31;97941.00;;;2.70;77.36
40117;BME280;25829;50.228;18.936;2022-12-07T11:43:36;97931.53;;;2.69;77.21
40117;BME280;25829;50.228;18.936;2022-12-07T11:46:50;97924.53;;;2.69;76.90
40117;BME280;25829;50.228;18.936;2022-12-07T11:50:13;97929.41;;;2.72;77.19
40117;BME280;25829;50.228;18.936;2022-12-07T11:53:35;97930.25;;;2.73;77.32
40117;BME280;25829;50.228;18.936;2022-12-07T11:56:49;97926.31;;;2.77;77.36
40117;BME280;25829;50.228;18.936;2022-12-07T12:00:01;97925.78;;;2.82;77.45
40117;BME280;25829;50.228;18.936;2022-12-07T12:03:14;97930.47;;;2.86;76.79
40117;BME280;25829;50.228;18.936;2022-12-07T12:06:16;97932.47;;;2.84;76.82
40117;BME280;25829;50.228;18.936;2022-12-07T12:09:29;97935.69;;;2.86;77.27
40117;BME280;25829;50.228;18.936;2022-12-07T12:16:17;97942.88;;;2.84;76.58
40117;BME280;25829;50.228;18.936;2022-12-07T12:22:38;97947.22;;;2.92;76.51
40117;BME280;25829;50.228;18.936;2022-12-07T12:25:46;97938.09;;;2.96;76.34
40117;BME280;25829;50.228;18.936;2022-12-07T12:29:03;97939.53;;;2.98;75.88
40117;BME280;25829;50.228;18.936;2022-12-07T12:32:17;97926.84;;;2.95;75.83
40117;BME280;25829;50.228;18.936;2022-12-07T12:35:34;97927.66;;;2.96;75.88
40117;BME280;25829;50.228;18.936;2022-12-07T12:42:19;97923.56;;;3.02;75.88
40117;BME280;25829;50.228;18.936;2022-12-07T12:45:32;97915.75;;;3.02;75.66
40117;BME280;25829;50.228;18.936;2022-12-07T12:48:38;97908.09;;;3.00;75.28
40117;BME280;25829;50.228;18.936;2022-12-07T12:51:40;97907.16;;;2.93;75.10
40117;BME280;25829;50.228;18.936;2022-12-07T12:55:01;97907.34;;;2.91;74.99
40117;BME280;25829;50.228;18.936;2022-12-07T12:58:29;97909.31;;;2.89;75.45
40117;BME280;25829;50.228;18.936;2022-12-07T13:01:41;97918.25;;;2.87;75.30
40117;BME280;25829;50.228;18.936;2022-12-07T13:08:20;97908.50;;;2.89;75.54
40117;BME280;25829;50.228;18.936;2022-12-07T13:14:43;97907.22;;;2.85;74.49
40117;BME280;25829;50.228;18.936;2022-12-07T13:17:57;97924.47;;;2.86;74.45
40117;BME280;25829;50.228;18.936;2022-12-07T13:24:10;97923.66;;;2.85;73.91
40117;BME280;25829;50.228;18.936;2022-12-07T13:27:12;97921.22;;;2.84;73.25
40117;BME280;25829;50.228;18.936;2022-12-07T13:30:19;97923.84;;;2.84;73.35
40117;BME280;25829;50.228;18.936;2022-12-07T13:33:21;97920.13;;;2.78;72.76
40117;BME280;25829;50.228;18.936;2022-12-07T13:36:33;97920.91;;;2.79;73.12
40117;BME280;25829;50.228;18.936;2022-12-07T13:39:45;97927.59;;;2.81;73.46
40117;BME280;25829;50.228;18.936;2022-12-07T13:42:47;97920.91;;;2.79;72.96
40117;BME280;25829;50.228;18.936;2022-12-07T13:45:56;97929.53;;;2.79;72.78
40117;BME280;25829;50.228;18.936;2022-12-07T13:48:58;97926.78;;;2.81;73.32
40117;BME280;25829;50.228;18.936;2022-12-07T13:52:18;97939.47;;;2.84;73.17
40117;BME280;25829;50.228;18.936;2022-12-07T13:55:19;97941.44;;;2.82;72.70
40117;BME280;25829;50.228;18.936;2022-12-07T13:58:21;97935.94;;;2.77;71.56
40117;BME280;25829;50.228;18.936;2022-12-07T14:01:24;97933.66;;;2.73;71.72
40117;BME280;25829;50.228;18.936;2022-12-07T14:04:35;97942.44;;;2.72;71.59
40117;BME280;25829;50.228;18.936;2022-12-07T14:07:54;97942.78;;;2.69;71.23
40117;BME280;25829;50.228;18.936;2022-12-07T14:10:56;97943.94;;;2.67;71.49
40117;BME280;25829;50.228;18.936;2022-12-07T14:14:02;97950.94;;;2.66;71.14
40117;BME280;25829;50.228;18.936;2022-12-07T14:17:15;97954.50;;;2.65;71.26
40117;BME280;25829;50.228;18.936;2022-12-07T14:20:44;97947.69;;;2.64;71.40
40117;BME280;25829;50.228;18.936;2022-12-07T14:23:45;97949.81;;;2.61;71.51
40117;BME280;25829;50.228;18.936;2022-12-07T14:26:54;97953.91;;;2.55;70.85
40117;BME280;25829;50.228;18.936;2022-12-07T14:29:55;97957.97;;;2.58;71.59
40117;BME280;25829;50.228;18.936;2022-12-07T14:32:59;97960.56;;;2.58;71.30
40117;BME280;25829;50.228;18.936;2022-12-07T14:36:01;97958.63;;;2.60;71.33
40117;BME280;25829;50.228;18.936;2022-12-07T14:39:02;97963.19;;;2.58;71.46
40117;BME280;25829;50.228;18.936;2022-12-07T14:42:02;97961.22;;;2.60;71.80
40117;BME280;25829;50.228;18.936;2022-12-07T14:45:03;97968.53;;;2.64;71.58
40117;BME280;25829;50.228;18.936;2022-12-07T14:48:05;97975.34;;;2.65;70.98
40117;BME280;25829;50.228;18.936;2022-12-07T14:51:09;97978.47;;;2.61;70.97
40117;BME280;25829;50.228;18.936;2022-12-07T14:54:18;97966.25;;;2.61;71.07
40117;BME280;25829;50.228;18.936;2022-12-07T14:57:19;97965.63;;;2.59;71.02
40117;BME280;25829;50.228;18.936;2022-12-07T15:00:21;97971.78;;;2.58;71.08
40117;BME280;25829;50.228;18.936;2022-12-07T15:03:23;97985.63;;;2.59;71.26
40117;BME280;25829;50.228;18.936;2022-12-07T15:06:23;97990.69;;;2.60;71.12
40117;BME280;25829;50.228;18.936;2022-12-07T15:09:24;97988.69;;;2.62;71.43
40117;BME280;25829;50.228;18.936;2022-12-07T15:12:25;97988.69;;;2.62;71.35
40117;BME280;25829;50.228;18.936;2022-12-07T15:15:26;97981.53;;;2.64;71.17
40117;BME280;25829;50.228;18.936;2022-12-07T15:18:26;97990.34;;;2.63;71.36
40117;BME280;25829;50.228;18.936;2022-12-07T15:21:28;97984.81;;;2.66;71.60
40117;BME280;25829;50.228;18.936;2022-12-07T15:24:29;97985.75;;;2.65;71.20
40117;BME280;25829;50.228;18.936;2022-12-07T15:27:31;97985.75;;;2.65;70.69
40117;BME280;25829;50.228;18.936;2022-12-07T15:30:33;97984.97;;;2.65;70.88
40117;BME280;25829;50.228;18.936;2022-12-07T15:33:34;97990.19;;;2.57;70.69
40117;BME280;25829;50.228;18.936;2022-12-07T15:36:35;97992.66;;;2.50;70.43
40117;BME280;25829;50.228;18.936;2022-12-07T15:39:36;97996.25;;;2.49;70.80
40117;BME280;25829;50.228;18.936;2022-12-07T15:42:37;97999.00;;;2.47;70.79
40117;BME280;25829;50.228;18.936;2022-12-07T15:45:41;97997.22;;;2.48;70.74
40117;BME280;25829;50.228;18.936;2022-12-07T15:48:42;97990.41;;;2.47;70.57
40117;BME280;25829;50.228;18.936;2022-12-07T15:51:44;97986.97;;;2.46;70.42
40117;BME280;25829;50.228;18.936;2022-12-07T15:54:45;97991.72;;;2.43;70.45
40117;BME280;25829;50.228;18.936;2022-12-07T15:57:47;97989.25;;;2.41;70.39
40117;BME280;25829;50.228;18.936;2022-12-07T16:00:51;97989.25;;;2.41;70.57
40117;BME280;25829;50.228;18.936;2022-12-07T16:03:52;97991.22;;;2.39;70.84
40117;BME280;25829;50.228;18.936;2022-12-07T16:06:52;98002.78;;;2.37;70.22
40117;BME280;25829;50.228;18.936;2022-12-07T16:09:53;97990.44;;;2.31;70.66
40117;BME280;25829;50.228;18.936;2022-12-07T16:12:55;97996.13;;;2.26;70.57
40117;BME280;25829;50.228;18.936;2022-12-07T16:15:55;97996.66;;;2.21;70.42
40117;BME280;25829;50.228;18.936;2022-12-07T16:19:03;97990.28;;;2.16;70.46
40117;BME280;25829;50.228;18.936;2022-12-07T16:22:04;98000.22;;;2.12;70.51
40117;BME280;25829;50.228;18.936;2022-12-07T16:25:05;98002.34;;;2.09;70.34
40117;BME280;25829;50.228;18.936;2022-12-07T16:28:06;98000.06;;;2.06;70.67
40117;BME280;25829;50.228;18.936;2022-12-07T16:31:11;98008.19;;;2.02;71.04
40117;BME280;25829;50.228;18.936;2022-12-07T16:34:12;98000.72;;;1.99;70.76
40117;BME280;25829;50.228;18.936;2022-12-07T16:37:12;97999.41;;;1.95;70.82
40117;BME280;25829;50.228;18.936;2022-12-07T16:40:13;98000.56;;;1.93;70.86
40117;BME280;25829;50.228;18.936;2022-12-07T16:43:14;97992.13;;;1.91;71.11
40117;BME280;25829;50.228;18.936;2022-12-07T16:46:15;98000.88;;;1.90;70.68
40117;BME280;25829;50.228;18.936;2022-12-07T16:49:16;98007.56;;;1.84;70.79
40117;BME280;25829;50.228;18.936;2022-12-07T16:52:20;97997.97;;;1.76;70.54
40117;BME280;25829;50.228;18.936;2022-12-07T16:55:21;97999.13;;;1.74;71.12
40117;BME280;25829;50.228;18.936;2022-12-07T16:58:22;98008.84;;;1.72;71.10
40117;BME280;25829;50.228;18.936;2022-12-07T17:01:23;97998.78;;;1.69;71.31
40117;BME280;25829;50.228;18.936;2022-12-07T17:04:24;98000.25;;;1.63;70.66
40117;BME280;25829;50.228;18.936;2022-12-07T17:07:24;97998.47;;;1.64;70.97
40117;BME280;25829;50.228;18.936;2022-12-07T17:10:25;98002.66;;;1.65;70.74
40117;BME280;25829;50.228;18.936;2022-12-07T17:13:26;98004.47;;;1.64;71.22
40117;BME280;25829;50.228;18.936;2022-12-07T17:16:46;98003.16;;;1.68;71.28
40117;BME280;25829;50.228;18.936;2022-12-07T17:19:47;97998.28;;;1.65;70.57
40117;BME280;25829;50.228;18.936;2022-12-07T17:22:47;98002.34;;;1.68;71.14
40117;BME280;25829;50.228;18.936;2022-12-07T17:25:48;97999.75;;;1.68;71.31
40117;BME280;25829;50.228;18.936;2022-12-07T17:28:49;98005.44;;;1.63;71.25
40117;BME280;25829;50.228;18.936;2022-12-07T17:31:50;98004.63;;;1.63;71.27
40117;BME280;25829;50.228;18.936;2022-12-07T17:35:01;98009.34;;;1.59;71.14
40117;BME280;25829;50.228;18.936;2022-12-07T17:38:02;98002.84;;;1.63;71.08
40117;BME280;25829;50.228;18.936;2022-12-07T17:41:23;97994.72;;;1.66;71.18
40117;BME280;25829;50.228;18.936;2022-12-07T17:44:52;97989.53;;;1.66;70.65
40117;BME280;25829;50.228;18.936;2022-12-07T17:47:52;98000.56;;;1.60;70.39
40117;BME280;25829;50.228;18.936;2022-12-07T17:51:00;97995.38;;;1.60;70.32
40117;BME280;25829;50.228;18.936;2022-12-07T17:54:19;98000.56;;;1.60;70.63
40117;BME280;25829;50.228;18.936;2022-12-07T17:57:21;97995.50;;;1.59;70.51
40117;BME280;25829;50.228;18.936;2022-12-07T18:03:30;97994.06;;;1.56;70.51
40117;BME280;25829;50.228;18.936;2022-12-07T18:06:31;97996.97;;;1.61;71.30
40117;BME280;25829;50.228;18.936;2022-12-07T18:09:36;98000.38;;;1.62;71.15
40117;BME280;25829;50.228;18.936;2022-12-07T18:12:44;98009.03;;;1.62;70.63
40117;BME280;25829;50.228;18.936;2022-12-07T18:15:45;98009.97;;;1.61;71.29
40117;BME280;25829;50.228;18.936;2022-12-07T18:19:05;98001.06;;;1.64;70.84
40117;BME280;25829;50.228;18.936;2022-12-07T18:22:09;97998.28;;;1.65;71.10